Time;durP1;ratioP1;P1;durP2;ratioP2;P2;SDS_P1;SDS_P2;PMS_P1;PMS_P2;Temp;Humidity;BMP_temperature;BMP_pressure;BME280_temperature;BME280_humidity;BME280_pressure;Samples;Min_cycle;Max_cycle;Signal;HPM_P1;HPM_P2
2021/11/05 00:01:14;;;;;;;5.43;5.03;;;7.20;99.90;;;;;;5041350;28;20659;-93
2021/11/05 00:03:41;;;;;;;3.90;3.63;;;7.20;99.90;;;;;;5047950;28;20745;-93
2021/11/05 00:06:10;;;;;;;4.00;3.70;;;7.20;99.90;;;;;;5041044;28;20799;-93
2021/11/05 00:08:38;;;;;;;3.90;3.10;;;7.30;99.90;;;;;;5041618;28;20684;-93
2021/11/05 00:11:05;;;;;;;3.47;3.17;;;7.30;99.90;;;;;;5040550;28;20712;-93
2021/11/05 00:13:33;;;;;;;3.47;3.20;;;7.30;99.90;;;;;;5036390;28;20645;-93
2021/11/05 00:16:01;;;;;;;3.17;2.90;;;7.30;99.90;;;;;;5042129;28;21215;-94
2021/11/05 00:18:30;;;;;;;3.63;3.40;;;7.30;99.90;;;;;;5042174;28;21016;-94
2021/11/05 00:20:57;;;;;;;4.37;3.30;;;7.30;99.90;;;;;;5042720;28;21298;-94
2021/11/05 00:23:24;;;;;;;3.83;3.60;;;7.20;99.90;;;;;;5039537;28;20646;-93
2021/11/05 00:26:09;;;;;;;3.23;3.00;;;7.30;99.90;;;;;;5040575;28;20671;-94
2021/11/05 00:28:36;;;;;;;3.60;3.30;;;7.30;99.90;;;;;;5039775;28;20666;-93
2021/11/05 00:31:07;;;;;;;3.30;2.93;;;7.30;99.90;;;;;;5037527;28;20733;-93
2021/11/05 00:33:35;;;;;;;3.03;2.83;;;7.30;99.90;;;;;;5042644;28;20634;-94
2021/11/05 00:36:04;;;;;;;3.37;3.13;;;7.30;99.90;;;;;;5027780;28;21058;-94
2021/11/05 00:38:36;;;;;;;3.00;2.80;;;7.20;99.90;;;;;;5037451;28;20654;-94
2021/11/05 00:41:05;;;;;;;3.57;3.27;;;7.30;99.90;;;;;;5041126;28;20641;-93
2021/11/05 00:43:33;;;;;;;3.10;2.90;;;7.40;99.90;;;;;;5047866;28;20630;-94
2021/11/05 00:46:00;;;;;;;3.03;2.83;;;7.40;99.90;;;;;;5036250;28;20773;-95
2021/11/05 00:48:28;;;;;;;3.47;3.17;;;7.50;99.90;;;;;;5047739;28;21346;-95
2021/11/05 00:50:55;;;;;;;3.17;2.97;;;7.40;99.90;;;;;;5055784;28;20653;-94
2021/11/05 00:53:27;;;;;;;3.30;2.90;;;7.40;99.90;;;;;;5052588;28;20756;-93
2021/11/05 00:55:57;;;;;;;2.90;2.70;;;7.30;99.90;;;;;;5060079;28;20737;-95
2021/11/05 00:58:25;;;;;;;3.23;3.03;;;7.30;99.90;;;;;;5050402;28;20652;-94
2021/11/05 01:00:53;;;;;;;3.77;3.43;;;7.20;99.90;;;;;;5053328;28;21037;-95
2021/11/05 01:03:22;;;;;;;3.37;3.13;;;7.30;99.90;;;;;;5048437;28;20618;-95
2021/11/05 01:05:50;;;;;;;3.40;3.20;;;7.30;99.90;;;;;;5043479;28;21318;-96
2021/11/05 01:08:17;;;;;;;3.47;3.17;;;7.30;99.90;;;;;;5052751;28;21455;-94
2021/11/05 01:10:45;;;;;;;4.27;3.03;;;7.30;99.90;;;;;;5053184;28;21271;-95
2021/11/05 01:13:12;;;;;;;3.90;3.60;;;7.30;99.90;;;;;;5042767;28;20696;-94
2021/11/05 01:15:42;;;;;;;3.20;3.00;;;7.30;99.90;;;;;;5051339;28;20745;-95
2021/11/05 01:18:15;;;;;;;3.93;3.63;;;7.30;99.90;;;;;;5046735;28;20753;-95
2021/11/05 01:20:44;;;;;;;3.70;3.40;;;7.30;99.90;;;;;;5043002;28;20642;-95
2021/11/05 01:23:11;;;;;;;3.60;3.40;;;7.20;99.90;;;;;;5046965;28;20657;-94
2021/11/05 01:25:40;;;;;;;3.07;2.87;;;7.20;99.90;;;;;;5045900;28;20809;-94
2021/11/05 01:28:07;;;;;;;4.10;3.80;;;7.20;99.90;;;;;;5042977;28;21220;-94
2021/11/05 01:30:35;;;;;;;3.70;3.43;;;7.10;99.90;;;;;;5044980;28;20739;-95
2021/11/05 01:33:07;;;;;;;4.03;3.73;;;7.20;99.90;;;;;;5042716;28;20670;-94
2021/11/05 01:35:38;;;;;;;3.80;3.50;;;7.10;99.90;;;;;;5051646;28;20645;-94
2021/11/05 01:38:10;;;;;;;3.67;3.37;;;7.10;99.90;;;;;;5041792;28;21223;-95
2021/11/05 01:40:41;;;;;;;3.30;3.10;;;7.10;99.90;;;;;;5037455;28;20808;-94
2021/11/05 01:43:11;;;;;;;3.77;3.47;;;7.10;99.90;;;;;;5040440;28;21254;-94
2021/11/05 01:45:40;;;;;;;3.90;3.60;;;7.10;99.90;;;;;;5043625;28;20656;-94
2021/11/05 01:48:14;;;;;;;3.80;3.50;;;7.10;99.90;;;;;;5043903;28;20740;-94
2021/11/05 01:50:42;;;;;;;3.87;3.67;;;7.00;99.90;;;;;;5040513;28;20627;-94
2021/11/05 01:53:10;;;;;;;3.80;3.50;;;7.10;99.90;;;;;;5046824;28;21247;-94
2021/11/05 01:55:37;;;;;;;3.90;3.63;;;7.00;99.90;;;;;;5040714;28;20637;-94
2021/11/05 01:58:04;;;;;;;4.77;4.40;;;7.00;99.90;;;;;;5046317;28;20692;-94
2021/11/05 02:00:34;;;;;;;3.97;3.60;;;7.00;99.90;;;;;;5048152;28;20727;-94
2021/11/05 02:03:01;;;;;;;4.17;3.80;;;6.90;99.90;;;;;;5057043;28;20644;-93
2021/11/05 02:05:30;;;;;;;4.40;4.10;;;6.80;99.90;;;;;;5056244;28;20736;-95
2021/11/05 02:08:01;;;;;;;4.33;4.03;;;6.80;99.90;;;;;;5055950;28;20716;-94
2021/11/05 02:10:34;;;;;;;3.87;3.57;;;6.80;99.90;;;;;;5073776;28;20772;-94
2021/11/05 02:13:02;;;;;;;4.47;4.07;;;6.80;99.90;;;;;;5063097;28;20644;-95
2021/11/05 02:15:31;;;;;;;4.37;3.83;;;6.80;99.90;;;;;;5069507;28;20630;-94
2021/11/05 02:17:59;;;;;;;4.57;4.27;;;6.80;99.90;;;;;;5069172;28;20641;-94
2021/11/05 02:20:29;;;;;;;4.00;3.70;;;6.80;99.90;;;;;;5066878;28;20630;-95
2021/11/05 02:22:58;;;;;;;4.57;4.10;;;6.80;99.90;;;;;;5052020;28;20643;-95
2021/11/05 02:25:27;;;;;;;4.50;4.20;;;6.80;99.90;;;;;;5054738;28;20648;-95
2021/11/05 02:27:56;;;;;;;4.80;4.40;;;6.80;99.90;;;;;;5038314;28;20753;-92
2021/11/05 02:30:24;;;;;;;4.17;3.80;;;6.80;99.90;;;;;;5046043;28;20999;-93
2021/11/05 02:32:51;;;;;;;5.63;4.00;;;6.80;99.90;;;;;;5042859;28;20689;-93
2021/11/05 02:35:18;;;;;;;4.53;4.23;;;6.70;99.90;;;;;;5040707;28;20641;-93
2021/11/05 02:37:47;;;;;;;4.93;4.50;;;6.70;99.90;;;;;;5032294;28;20670;-92
2021/11/05 02:40:18;;;;;;;4.57;4.20;;;6.70;99.90;;;;;;5041575;28;21208;-92
2021/11/05 02:42:45;;;;;;;4.40;4.00;;;6.80;99.90;;;;;;5038067;28;20629;-94
2021/11/05 02:45:13;;;;;;;4.80;4.50;;;6.70;99.90;;;;;;5036405;28;20637;-93
2021/11/05 02:47:41;;;;;;;5.70;5.30;;;6.70;99.90;;;;;;5051851;28;20671;-92
2021/11/05 02:50:12;;;;;;;5.13;4.70;;;6.70;99.90;;;;;;5044651;28;20757;-93
2021/11/05 02:52:39;;;;;;;4.97;4.57;;;6.60;99.90;;;;;;5046217;28;20985;-93
2021/11/05 02:55:08;;;;;;;4.97;4.67;;;6.60;99.90;;;;;;5054181;28;20634;-94
2021/11/05 02:57:38;;;;;;;4.53;4.20;;;6.60;99.90;;;;;;5049906;28;20759;-93
2021/11/05 03:00:07;;;;;;;5.17;4.70;;;6.60;99.90;;;;;;5046884;28;20644;-93
2021/11/05 03:02:34;;;;;;;4.73;4.43;;;6.70;99.90;;;;;;5058528;28;20709;-94
2021/11/05 03:05:01;;;;;;;5.07;4.67;;;6.70;99.90;;;;;;5050473;28;20691;-93
2021/11/05 03:07:29;;;;;;;5.20;4.90;;;6.70;99.90;;;;;;5049659;28;20625;-94
2021/11/05 03:09:56;;;;;;;5.30;4.80;;;6.70;99.90;;;;;;5036282;28;20677;-94
2021/11/05 03:12:25;;;;;;;4.83;4.50;;;6.70;99.90;;;;;;5044510;28;20668;-94
2021/11/05 03:14:53;;;;;;;4.87;4.57;;;6.70;99.90;;;;;;5040703;28;20665;-94
2021/11/05 03:17:24;;;;;;;5.90;5.37;;;6.80;99.90;;;;;;5035651;28;20641;-94
2021/11/05 03:19:52;;;;;;;5.40;5.00;;;6.80;99.90;;;;;;5045354;28;20699;-94
2021/11/05 03:22:19;;;;;;;6.00;5.57;;;6.70;99.90;;;;;;5050054;28;20617;-93
2021/11/05 03:24:46;;;;;;;5.47;5.10;;;6.70;99.90;;;;;;5050546;28;20662;-93
2021/11/05 03:27:14;;;;;;;5.40;5.00;;;6.60;99.90;;;;;;5047009;28;20640;-94
2021/11/05 03:29:43;;;;;;;4.97;4.67;;;6.60;99.90;;;;;;5054334;28;20662;-94
2021/11/05 03:32:13;;;;;;;5.20;4.90;;;6.70;99.90;;;;;;5058380;28;21194;-94
2021/11/05 03:34:40;;;;;;;5.80;5.30;;;6.70;99.90;;;;;;5054355;28;20638;-94
2021/11/05 03:37:07;;;;;;;5.50;5.10;;;6.70;99.90;;;;;;5041599;28;20644;-93
2021/11/05 03:39:35;;;;;;;5.63;4.70;;;6.70;99.90;;;;;;5048630;28;20660;-92
2021/11/05 03:42:06;;;;;;;5.97;5.57;;;6.70;99.90;;;;;;5045343;28;20639;-94
2021/11/05 03:44:35;;;;;;;5.27;4.87;;;6.70;99.90;;;;;;5044552;28;20641;-94
2021/11/05 03:47:02;;;;;;;5.63;5.13;;;6.70;99.90;;;;;;5041767;28;20717;-93
2021/11/05 03:49:31;;;;;;;5.70;5.20;;;6.70;99.90;;;;;;5037881;28;20664;-93
2021/11/05 03:52:00;;;;;;;4.57;4.27;;;6.70;99.90;;;;;;5042028;28;20640;-93
2021/11/05 03:54:26;;;;;;;4.90;4.60;;;6.70;99.90;;;;;;5040104;28;20685;-93
2021/11/05 03:56:53;;;;;;;5.53;5.10;;;6.70;99.90;;;;;;5041163;28;20721;-93
2021/11/05 03:59:22;;;;;;;5.67;5.17;;;6.60;99.90;;;;;;5043362;28;20676;-93
2021/11/05 04:01:57;;;;;;;5.03;4.60;;;6.70;99.90;;;;;;5049692;28;21050;-95
2021/11/05 04:04:32;;;;;;;4.93;4.53;;;6.60;99.90;;;;;;5030931;28;20633;-95
2021/11/05 04:07:06;;;;;;;4.80;4.40;;;6.60;99.90;;;;;;5038212;28;21026;-96
2021/11/05 04:09:35;;;;;;;5.23;4.83;;;6.60;99.90;;;;;;5044568;28;20662;-95
2021/11/05 04:12:07;;;;;;;7.13;4.30;;;6.60;99.90;;;;;;5051387;28;20929;-94
2021/11/05 04:17:40;;;;;;;6.43;4.20;;;6.60;99.90;;;;;;5057442;28;21184;-95
2021/11/05 04:20:15;;;;;;;5.00;4.70;;;6.60;99.90;;;;;;5027283;28;20773;-94
2021/11/05 04:22:44;;;;;;;4.83;4.43;;;6.70;99.90;;;;;;5057313;28;20636;-94
2021/11/05 04:25:13;;;;;;;4.97;4.53;;;6.70;99.90;;;;;;5069952;28;20661;-93
2021/11/05 04:27:43;;;;;;;5.20;4.77;;;6.60;99.90;;;;;;5075590;28;20672;-96
2021/11/05 04:30:13;;;;;;;4.90;4.50;;;6.60;99.90;;;;;;5057036;28;21144;-94
2021/11/05 04:32:54;;;;;;;5.00;4.70;;;6.60;99.90;;;;;;5057879;28;20664;-95
2021/11/05 04:35:29;;;;;;;4.73;4.43;;;6.60;99.90;;;;;;5063665;28;20652;-95
2021/11/05 04:38:06;;;;;;;5.07;4.77;;;6.60;99.90;;;;;;5056935;28;20677;-95
2021/11/05 04:40:38;;;;;;;5.10;4.47;;;6.60;99.90;;;;;;5059064;28;21352;-95
2021/11/05 04:43:07;;;;;;;5.97;5.57;;;6.60;99.90;;;;;;5053840;28;20659;-95
2021/11/05 04:45:34;;;;;;;4.80;4.40;;;6.60;99.90;;;;;;5037429;28;20627;-95
2021/11/05 04:48:03;;;;;;;4.93;4.50;;;6.60;99.90;;;;;;5040848;28;20708;-93
2021/11/05 04:50:36;;;;;;;4.43;4.13;;;6.60;99.90;;;;;;5043951;28;20635;-92
2021/11/05 04:53:03;;;;;;;4.80;4.50;;;6.60;99.90;;;;;;5043655;28;20654;-93
2021/11/05 04:55:30;;;;;;;4.90;4.60;;;6.60;99.90;;;;;;5045271;28;20654;-94
2021/11/05 04:57:59;;;;;;;5.73;4.80;;;6.70;99.90;;;;;;5039917;28;20669;-93
2021/11/05 05:00:28;;;;;;;4.60;4.30;;;6.60;99.90;;;;;;5045538;28;21171;-94
2021/11/05 05:02:58;;;;;;;5.10;4.80;;;6.60;99.90;;;;;;5049565;28;20658;-94
2021/11/05 05:05:27;;;;;;;5.50;5.10;;;6.60;99.90;;;;;;5043648;28;20639;-94
2021/11/05 05:07:58;;;;;;;5.60;5.10;;;6.70;99.90;;;;;;5043359;28;20674;-93
2021/11/05 05:10:28;;;;;;;4.13;3.83;;;6.70;99.90;;;;;;5045775;28;20741;-94
2021/11/05 05:12:56;;;;;;;5.00;4.70;;;6.70;99.90;;;;;;5050554;28;20653;-95
2021/11/05 05:15:35;;;;;;;5.07;4.67;;;6.80;99.90;;;;;;5044689;28;20641;-96
2021/11/05 05:18:02;;;;;;;4.80;4.40;;;6.70;99.90;;;;;;5052135;28;20703;-94
2021/11/05 05:20:29;;;;;;;5.50;5.10;;;6.80;99.90;;;;;;5053914;28;20641;-94
2021/11/05 05:28:54;;;;;;;5.50;5.10;;;6.80;99.90;;;;;;5039457;28;20670;-92
2021/11/05 05:31:23;;;;;;;4.90;4.60;;;6.80;99.90;;;;;;5045544;28;20728;-93
2021/11/05 05:33:50;;;;;;;5.50;5.10;;;6.80;99.90;;;;;;5050372;28;20767;-93
2021/11/05 05:36:18;;;;;;;5.80;5.40;;;6.80;99.90;;;;;;5033094;28;20717;-93
2021/11/05 05:38:47;;;;;;;5.90;5.40;;;6.80;99.90;;;;;;5031913;28;20789;-92
2021/11/05 05:41:16;;;;;;;5.13;4.63;;;6.70;99.90;;;;;;5027448;28;20646;-93
2021/11/05 05:43:45;;;;;;;5.40;5.00;;;6.70;99.90;;;;;;5026326;28;20638;-92
2021/11/05 05:46:14;;;;;;;6.10;5.67;;;6.80;99.90;;;;;;5027390;28;20750;-91
2021/11/05 05:48:44;;;;;;;5.60;5.20;;;6.90;99.90;;;;;;5027844;28;20670;-94
2021/11/05 05:55:15;;;;;;;5.33;4.90;;;6.80;99.90;;;;;;4954362;28;20657;-94
2021/11/05 05:58:05;;;;;;;5.23;4.83;;;6.90;99.90;;;;;;4949009;28;21456;-92
2021/11/05 08:10:52;;;;;;;6.67;6.07;;;7.20;99.90;;;;;;4916654;29;21160;-96
2021/11/05 08:28:00;;;;;;;5.80;5.40;;;7.40;99.90;;;;;;5846889;23;21192;-95
2021/11/05 08:30:33;;;;;;;6.07;5.57;;;7.50;99.90;;;;;;4933125;29;20770;-95
2021/11/05 08:33:01;;;;;;;6.00;5.57;;;7.50;99.90;;;;;;4941003;29;20640;-95
2021/11/05 08:35:32;;;;;;;7.30;6.00;;;7.60;99.90;;;;;;4940648;29;20682;-94
2021/11/05 08:38:08;;;;;;;6.10;5.60;;;7.60;99.90;;;;;;4942012;29;21014;-93
2021/11/05 08:40:36;;;;;;;5.80;5.30;;;7.60;99.90;;;;;;4942563;29;21141;-94
2021/11/05 08:43:06;;;;;;;5.83;5.30;;;7.70;99.90;;;;;;4944999;29;20647;-93
2021/11/05 08:45:44;;;;;;;7.63;4.90;;;7.70;99.90;;;;;;4947496;28;20685;-95
2021/11/05 08:48:18;;;;;;;5.20;4.77;;;7.80;99.90;;;;;;4953037;28;20619;-94
2021/11/05 08:53:31;;;;;;;5.00;4.60;;;7.80;99.90;;;;;;5217179;23;20694;-94
2021/11/05 09:04:06;;;;;;;5.50;5.10;;;8.00;99.90;;;;;;4975111;28;20650;-94
2021/11/05 09:06:34;;;;;;;5.93;5.27;;;8.10;99.90;;;;;;4973886;28;20635;-93
2021/11/05 09:09:04;;;;;;;6.27;4.63;;;8.30;99.90;;;;;;4977075;28;20611;-95
2021/11/05 09:11:32;;;;;;;5.77;5.27;;;8.50;99.90;;;;;;4978719;28;20619;-94
2021/11/05 12:23:40;;;;;;;;;;;;;;;;;;;;;
2021/11/05 12:39:06;;;;;;;4.60;4.30;;;11.40;99.90;;;;;;5185605;23;20681;-95
2021/11/05 12:42:02;;;;;;;4.23;3.93;;;11.60;99.90;;;;;;4942380;29;20695;-96
2021/11/05 12:45:03;;;;;;;4.53;4.20;;;11.60;99.90;;;;;;4939906;29;20675;-94
2021/11/05 12:47:53;;;;;;;4.90;4.50;;;11.60;99.90;;;;;;4932713;29;20653;-93
2021/11/05 12:50:23;;;;;;;5.10;4.70;;;11.40;99.90;;;;;;4933448;29;21015;-94
2021/11/05 12:52:56;;;;;;;4.20;3.90;;;11.30;99.90;;;;;;4934680;29;21133;-95
2021/11/05 12:55:28;;;;;;;6.03;5.53;;;11.20;99.90;;;;;;4939408;29;20667;-96
2021/11/05 13:01:14;;;;;;;5.80;5.40;;;11.20;99.90;;;;;;4908205;29;20637;-96
2021/11/05 13:03:46;;;;;;;5.30;4.80;;;11.30;99.90;;;;;;4939605;29;20627;-95
2021/11/05 13:06:21;;;;;;;5.77;5.37;;;11.50;99.90;;;;;;4946612;29;20675;-96
2021/11/05 13:08:55;;;;;;;6.60;6.00;;;11.50;99.90;;;;;;4946215;29;20677;-96
2021/11/05 13:11:31;;;;;;;5.70;5.20;;;11.60;99.90;;;;;;4950620;29;20741;-96
2021/11/05 13:14:15;;;;;;;6.23;5.83;;;11.80;99.90;;;;;;4953071;29;20671;-96
2021/11/05 13:16:50;;;;;;;11.50;10.27;;;12.10;99.90;;;;;;4944696;28;20650;-96
2021/11/05 13:19:30;;;;;;;11.23;10.40;;;12.10;99.90;;;;;;4951110;29;21257;-96
2021/11/05 13:22:03;;;;;;;4.97;4.57;;;12.10;99.90;;;;;;4948640;29;20631;-96
2021/11/05 13:34:03;;;;;;;7.53;6.97;;;11.70;99.90;;;;;;4951007;29;20623;-96
2021/11/05 13:53:04;;;;;;;10.20;9.30;;;11.00;99.90;;;;;;4938799;29;20678;-95
2021/11/05 13:55:40;;;;;;;9.73;8.90;;;10.90;99.90;;;;;;4940561;29;20755;-96
2021/11/05 14:00:53;;;;;;;10.23;9.53;;;10.60;99.90;;;;;;4949617;29;20638;-94
2021/11/05 14:03:40;;;;;;;12.00;10.90;;;10.40;99.90;;;;;;4934807;29;20717;-95
2021/11/05 14:06:13;;;;;;;11.50;10.60;;;10.30;99.90;;;;;;4953372;28;20949;-94
2021/11/05 14:14:29;;;;;;;9.00;8.30;;;10.20;99.90;;;;;;4943688;29;20678;-95
2021/11/05 14:17:02;;;;;;;11.70;10.47;;;10.10;99.90;;;;;;4948899;28;20726;-95
2021/11/05 14:19:36;;;;;;;11.23;10.33;;;10.20;99.90;;;;;;4947325;29;20654;-95
2021/11/05 14:24:50;;;;;;;10.80;10.00;;;10.00;99.90;;;;;;4934496;29;20607;-95
2021/11/05 14:27:39;;;;;;;9.97;9.27;;;10.10;99.90;;;;;;4941453;28;20682;-95
2021/11/05 14:30:15;;;;;;;10.83;10.13;;;9.90;99.90;;;;;;4944964;29;20635;-95
2021/11/05 14:32:48;;;;;;;9.10;8.50;;;10.00;99.90;;;;;;4944685;29;20657;-95
2021/11/05 14:35:18;;;;;;;11.17;10.17;;;9.80;99.90;;;;;;4940832;29;20723;-94
2021/11/05 14:37:50;;;;;;;10.27;9.40;;;9.70;99.90;;;;;;4942868;29;20671;-96
2021/11/05 14:40:22;;;;;;;9.93;9.13;;;9.70;99.90;;;;;;4936148;29;21645;-95
2021/11/05 14:43:06;;;;;;;11.13;10.33;;;9.60;99.90;;;;;;4935081;29;20650;-95
2021/11/05 14:45:35;;;;;;;10.10;9.40;;;9.50;99.90;;;;;;4947918;28;20619;-95
2021/11/05 14:48:12;;;;;;;10.50;9.70;;;9.50;99.90;;;;;;4956708;28;20719;-95
2021/11/05 14:50:49;;;;;;;10.97;10.23;;;9.50;99.90;;;;;;4958173;28;20653;-94
2021/11/05 14:53:29;;;;;;;10.67;9.67;;;9.40;99.90;;;;;;4954189;28;20620;-95
2021/11/05 14:59:20;;;;;;;10.93;10.03;;;9.40;99.90;;;;;;4958411;28;20657;-94
2021/11/05 15:01:47;;;;;;;10.97;10.17;;;9.40;99.90;;;;;;4957962;29;20707;-94
2021/11/05 15:04:27;;;;;;;12.70;11.60;;;9.30;99.90;;;;;;4946991;29;20654;-94
2021/11/05 16:25:24;;;;;;;13.60;12.60;;;8.70;99.90;;;;;;4879286;29;20683;-92
2021/11/05 16:27:53;;;;;;;13.30;12.30;;;8.70;99.90;;;;;;4934018;29;20713;-93
2021/11/05 16:30:30;;;;;;;14.00;12.90;;;8.80;99.90;;;;;;4958416;28;20686;-94
2021/11/05 16:33:01;;;;;;;13.07;11.97;;;8.80;99.90;;;;;;4954643;28;21199;-94
2021/11/05 16:35:35;;;;;;;14.67;13.33;;;8.70;99.90;;;;;;4953357;28;20662;-94
2021/11/05 16:38:05;;;;;;;13.27;12.27;;;8.80;99.90;;;;;;4952702;28;21204;-94
2021/11/05 16:40:34;;;;;;;13.37;12.00;;;8.80;99.90;;;;;;4953659;28;20661;-93
2021/11/05 16:43:03;;;;;;;13.87;12.77;;;8.80;99.90;;;;;;4953977;28;20693;-94
2021/11/05 16:45:34;;;;;;;14.53;13.33;;;8.80;99.90;;;;;;4952479;28;21140;-94
2021/11/05 16:48:01;;;;;;;14.50;13.20;;;8.70;99.90;;;;;;4949319;28;20637;-93
2021/11/05 16:50:32;;;;;;;14.23;13.03;;;8.70;99.90;;;;;;4950303;28;21112;-94
2021/11/05 16:53:02;;;;;;;14.70;13.60;;;8.70;99.90;;;;;;4948186;28;20619;-94
2021/11/05 16:55:30;;;;;;;14.83;13.67;;;8.70;99.90;;;;;;4948625;28;20673;-94
2021/11/05 16:58:01;;;;;;;15.40;14.10;;;8.60;99.90;;;;;;4950560;28;20662;-94
2021/11/05 17:00:30;;;;;;;16.03;14.70;;;8.60;99.90;;;;;;4951882;28;20777;-95
2021/11/05 17:03:46;;;;;;;17.30;15.80;;;8.60;99.90;;;;;;4948556;28;20634;-94
2021/11/05 17:06:14;;;;;;;15.03;13.83;;;8.60;99.90;;;;;;4944735;28;20633;-92
2021/11/05 17:08:51;;;;;;;16.73;15.40;;;8.60;99.90;;;;;;4949375;28;21207;-94
2021/11/05 17:11:19;;;;;;;16.27;14.87;;;8.50;99.90;;;;;;4958281;28;20680;-92
2021/11/05 17:14:11;;;;;;;17.47;15.90;;;8.40;99.90;;;;;;4960211;28;20853;-94
2021/11/05 17:19:21;;;;;;;17.77;16.13;;;8.40;99.90;;;;;;4958540;28;20986;-93
2021/11/05 17:21:51;;;;;;;18.67;17.07;;;8.40;99.90;;;;;;4959976;28;20769;-93
2021/11/05 17:24:20;;;;;;;20.50;18.70;;;8.30;99.90;;;;;;4958369;28;20638;-93
2021/11/05 17:30:19;;;;;;;20.17;18.27;;;8.40;99.90;;;;;;5016328;27;20903;-94
2021/11/05 17:32:49;;;;;;;18.53;16.90;;;8.40;99.90;;;;;;5012424;28;20657;-95
2021/11/05 17:35:20;;;;;;;19.27;17.57;;;8.20;99.90;;;;;;5025164;28;20634;-94
2021/11/05 17:37:49;;;;;;;21.40;19.60;;;8.20;99.90;;;;;;4991940;28;20677;-91
2021/11/05 17:40:16;;;;;;;20.40;18.70;;;8.20;99.90;;;;;;5013478;28;20668;-91
2021/11/05 17:42:45;;;;;;;20.90;19.07;;;8.20;99.90;;;;;;5001765;28;21177;-89
2021/11/05 17:45:19;;;;;;;19.47;17.87;;;8.10;99.90;;;;;;5003383;28;20641;-93
2021/11/05 17:47:55;;;;;;;21.73;19.90;;;8.20;99.90;;;;;;4996597;28;20676;-92
2021/11/05 17:50:22;;;;;;;21.10;19.40;;;8.20;99.90;;;;;;5012941;28;20638;-90
2021/11/05 17:52:51;;;;;;;22.23;20.23;;;8.10;99.90;;;;;;5000313;28;20629;-92
2021/11/05 17:55:19;;;;;;;22.20;20.40;;;8.00;99.90;;;;;;5010309;28;21193;-91
2021/11/05 18:00:48;;;;;;;22.40;20.40;;;7.80;99.90;;;;;;5003103;28;20685;-94
2021/11/05 18:03:35;;;;;;;23.03;20.90;;;7.70;99.90;;;;;;5024714;28;20620;-95
2021/11/05 18:06:07;;;;;;;23.87;21.67;;;7.60;99.90;;;;;;4994888;28;21187;-96
2021/11/05 18:08:35;;;;;;;23.43;21.33;;;7.60;99.90;;;;;;4995735;28;20730;-94
2021/11/05 18:11:08;;;;;;;24.67;22.17;;;7.50;99.90;;;;;;4987462;28;20644;-94
2021/11/05 18:13:36;;;;;;;24.40;22.27;;;7.50;99.90;;;;;;5011157;28;20636;-94
2021/11/05 18:16:04;;;;;;;25.63;23.50;;;7.40;99.90;;;;;;4992875;28;20647;-94
2021/11/05 18:18:33;;;;;;;24.20;21.80;;;7.30;99.90;;;;;;4999509;28;20660;-94
2021/11/05 18:21:07;;;;;;;24.80;22.50;;;7.20;99.90;;;;;;4997163;28;21160;-95
2021/11/05 18:23:36;;;;;;;27.07;24.67;;;7.20;99.90;;;;;;5003206;28;20735;-94
2021/11/05 18:26:04;;;;;;;25.13;22.73;;;7.20;99.90;;;;;;4997127;28;20665;-95
2021/11/05 18:28:31;;;;;;;23.60;21.27;;;7.10;99.90;;;;;;5018936;28;20922;-93
2021/11/05 18:31:00;;;;;;;24.57;22.37;;;7.10;99.90;;;;;;5008249;28;20636;-93
2021/11/05 18:33:29;;;;;;;23.03;20.80;;;7.00;99.90;;;;;;5018971;28;20629;-94
2021/11/05 18:39:25;;;;;;;25.23;22.87;;;6.90;99.90;;;;;;5006903;28;20667;-94
2021/11/05 18:44:36;;;;;;;26.47;23.97;;;6.90;99.90;;;;;;5022668;28;20648;-92
2021/11/05 18:47:04;;;;;;;23.87;21.53;;;6.80;99.90;;;;;;5010930;28;20640;-91
2021/11/05 18:49:31;;;;;;;28.97;26.50;;;6.80;99.90;;;;;;5000317;28;20684;-92
2021/11/05 18:51:59;;;;;;;28.50;26.10;;;6.80;99.90;;;;;;5033038;28;20760;-90
2021/11/05 18:54:28;;;;;;;27.10;24.47;;;6.70;99.90;;;;;;5007973;28;20633;-91
2021/11/05 18:56:59;;;;;;;26.97;24.57;;;6.80;99.90;;;;;;4999380;28;20673;-92
2021/11/05 18:59:31;;;;;;;31.33;28.50;;;6.80;99.90;;;;;;5018858;28;20655;-93
2021/11/05 19:02:02;;;;;;;27.67;25.10;;;6.80;99.90;;;;;;4996001;28;20630;-94
2021/11/05 19:04:30;;;;;;;28.90;26.20;;;6.80;99.90;;;;;;4992146;28;20703;-91
2021/11/05 19:06:59;;;;;;;26.70;24.40;;;6.90;99.90;;;;;;5008998;28;20721;-93
2021/11/05 19:09:45;;;;;;;26.70;24.10;;;6.90;99.90;;;;;;5018606;28;20676;-94
2021/11/05 19:12:19;;;;;;;26.67;23.97;;;6.90;99.90;;;;;;4996810;28;20630;-94
2021/11/05 19:20:15;;;;;;;29.00;26.40;;;7.00;99.90;;;;;;5002085;28;20680;-92
2021/11/05 19:22:48;;;;;;;27.87;25.47;;;7.00;99.90;;;;;;5007251;28;20715;-91
2021/11/05 19:25:17;;;;;;;29.00;26.40;;;7.10;99.90;;;;;;4995950;28;20621;-91
2021/11/05 19:27:44;;;;;;;28.00;25.10;;;7.10;99.90;;;;;;4987258;28;20793;-90
2021/11/05 19:30:17;;;;;;;28.17;25.73;;;7.00;99.90;;;;;;5020247;28;20792;-90
2021/11/05 19:32:45;;;;;;;24.93;22.60;;;7.00;99.90;;;;;;5001844;28;20663;-91
2021/11/05 19:35:12;;;;;;;26.80;24.60;;;7.10;99.90;;;;;;5004517;28;20673;-90
2021/11/05 19:37:39;;;;;;;24.27;21.77;;;7.20;99.90;;;;;;5001425;28;20659;-90
2021/11/05 19:40:11;;;;;;;27.80;25.40;;;7.10;99.90;;;;;;4971124;28;20987;-90
2021/11/05 19:42:41;;;;;;;26.63;24.10;;;7.10;99.90;;;;;;4967661;28;20669;-90
2021/11/05 19:45:09;;;;;;;24.27;21.90;;;7.00;99.90;;;;;;4998356;28;20649;-91
2021/11/05 19:47:36;;;;;;;25.77;23.67;;;7.00;99.90;;;;;;4991109;28;20742;-90
2021/11/05 19:50:05;;;;;;;28.13;25.77;;;7.00;99.90;;;;;;4976849;28;20669;-90
2021/11/05 19:52:32;;;;;;;28.63;26.23;;;7.10;99.90;;;;;;4972367;28;20628;-90
2021/11/05 19:55:01;;;;;;;26.70;24.20;;;7.10;99.90;;;;;;4975700;28;20661;-92
2021/11/05 19:57:29;;;;;;;26.70;24.40;;;7.10;99.90;;;;;;4995454;28;20647;-91
2021/11/05 19:59:58;;;;;;;27.17;24.43;;;7.10;99.90;;;;;;4988530;28;20716;-90
2021/11/05 20:02:25;;;;;;;28.27;25.73;;;7.20;99.90;;;;;;5007544;28;20633;-91
2021/11/05 20:04:53;;;;;;;27.63;25.13;;;7.20;99.90;;;;;;4991160;28;20625;-91
2021/11/05 20:07:21;;;;;;;29.60;27.07;;;7.30;99.90;;;;;;5019922;28;20660;-90
2021/11/05 20:09:51;;;;;;;26.17;23.60;;;7.30;99.90;;;;;;4991488;28;20659;-90
2021/11/05 20:12:19;;;;;;;26.77;24.27;;;7.30;99.90;;;;;;5006816;28;21006;-90
2021/11/05 20:14:46;;;;;;;26.33;24.10;;;7.20;99.90;;;;;;5008147;28;20838;-90
2021/11/05 20:17:16;;;;;;;24.67;22.33;;;7.30;99.90;;;;;;4987910;28;20617;-90
2021/11/05 20:19:43;;;;;;;25.13;22.83;;;7.30;99.90;;;;;;5014523;28;20637;-93
2021/11/05 20:22:11;;;;;;;26.03;23.93;;;7.30;99.90;;;;;;4978784;28;20644;-90
2021/11/05 20:24:39;;;;;;;25.80;23.80;;;7.40;99.90;;;;;;4974872;28;20682;-91
2021/11/05 20:27:06;;;;;;;25.10;22.97;;;7.30;99.90;;;;;;4982214;28;20737;-91
2021/11/05 20:29:39;;;;;;;27.83;25.63;;;7.40;99.90;;;;;;4963401;28;20688;-91
2021/11/05 20:32:07;;;;;;;26.10;23.77;;;7.30;99.90;;;;;;4993268;28;20632;-92
2021/11/05 20:34:38;;;;;;;29.53;26.77;;;7.30;99.90;;;;;;4979230;28;20979;-92
2021/11/05 20:37:10;;;;;;;26.23;23.90;;;7.30;99.90;;;;;;4985791;28;21048;-91
2021/11/05 20:39:40;;;;;;;25.30;23.20;;;7.20;99.90;;;;;;4995737;28;20684;-91
2021/11/05 20:42:08;;;;;;;26.37;24.00;;;7.20;99.90;;;;;;4999545;28;21130;-92
2021/11/05 20:47:26;;;;;;;29.80;27.20;;;7.10;99.90;;;;;;4989321;28;20649;-91
2021/11/05 20:49:55;;;;;;;27.93;25.43;;;7.10;99.90;;;;;;4971809;28;20684;-92
2021/11/05 20:52:22;;;;;;;29.87;27.37;;;7.10;99.90;;;;;;5026613;28;21247;-92
2021/11/05 20:54:50;;;;;;;28.10;25.70;;;7.00;99.90;;;;;;5012163;28;20634;-92
2021/11/05 20:59:59;;;;;;;25.60;23.37;;;6.90;99.90;;;;;;5008896;28;20613;-94
2021/11/05 21:02:29;;;;;;;27.67;25.20;;;6.90;99.90;;;;;;4992200;28;20621;-92
2021/11/05 21:04:57;;;;;;;26.43;24.00;;;6.80;99.90;;;;;;5001460;28;20697;-93
2021/11/05 21:07:25;;;;;;;29.87;27.37;;;6.70;99.90;;;;;;5010600;28;21104;-94
2021/11/05 21:09:53;;;;;;;27.87;25.47;;;6.70;99.90;;;;;;4972148;28;20670;-93
2021/11/05 21:12:21;;;;;;;31.03;28.23;;;6.70;99.90;;;;;;4998137;28;20641;-93
2021/11/05 21:14:48;;;;;;;29.20;26.80;;;6.60;99.90;;;;;;5014235;28;20631;-91
2021/11/05 21:17:15;;;;;;;30.13;27.60;;;6.60;99.90;;;;;;5001240;28;20636;-93
2021/11/05 21:19:43;;;;;;;28.23;25.73;;;6.50;99.90;;;;;;4971110;28;20820;-92
2021/11/05 21:22:12;;;;;;;29.83;27.30;;;6.60;99.90;;;;;;4997982;28;20659;-91
2021/11/05 21:27:21;;;;;;;30.50;27.63;;;6.50;99.90;;;;;;4993209;28;20833;-91
2021/11/05 21:29:48;;;;;;;31.07;28.27;;;6.50;99.90;;;;;;4980176;28;21207;-90
2021/11/05 21:32:15;;;;;;;28.43;25.83;;;6.60;99.90;;;;;;4979484;28;21030;-92
2021/11/05 21:34:42;;;;;;;28.47;25.87;;;6.60;99.90;;;;;;5005416;28;20621;-91
2021/11/05 21:37:15;;;;;;;29.47;27.10;;;6.60;99.90;;;;;;4972998;28;20597;-91
2021/11/05 21:39:43;;;;;;;29.90;27.07;;;6.70;99.90;;;;;;4987248;28;20720;-92
2021/11/05 21:42:11;;;;;;;27.70;25.30;;;6.70;99.90;;;;;;4970849;28;20640;-90
2021/11/05 21:44:38;;;;;;;30.40;27.80;;;6.60;99.90;;;;;;4991934;28;21009;-93
2021/11/05 21:47:08;;;;;;;32.23;29.43;;;6.60;99.90;;;;;;4976852;28;20653;-94